sensor_id;sensor_type;location;lat;lon;timestamp;P1;durP1;ratioP1;P2;durP2;ratioP2
59976;SDS011;45837;51.076;3.578;2024-02-21T00:00:23;10.75;;;7.70;;
59976;SDS011;45837;51.076;3.578;2024-02-21T00:02:48;10.07;;;7.15;;
59976;SDS011;45837;51.076;3.578;2024-02-21T00:05:14;12.18;;;7.35;;
59976;SDS011;45837;51.076;3.578;2024-02-21T00:07:40;11.27;;;7.30;;
59976;SDS011;45837;51.076;3.578;2024-02-21T00:10:06;12.07;;;7.45;;
59976;SDS011;45837;51.076;3.578;2024-02-21T00:12:33;10.63;;;7.05;;
59976;SDS011;45837;51.076;3.578;2024-02-21T00:14:58;12.63;;;7.38;;
59976;SDS011;45837;51.076;3.578;2024-02-21T00:17:24;12.98;;;8.00;;
59976;SDS011;45837;51.076;3.578;2024-02-21T00:19:51;9.93;;;7.03;;
59976;SDS011;45837;51.076;3.578;2024-02-21T00:22:17;11.63;;;7.28;;
59976;SDS011;45837;51.076;3.578;2024-02-21T00:24:43;10.05;;;6.78;;
59976;SDS011;45837;51.076;3.578;2024-02-21T00:27:08;13.68;;;7.68;;
59976;SDS011;45837;51.076;3.578;2024-02-21T00:29:34;11.52;;;6.90;;
59976;SDS011;45837;51.076;3.578;2024-02-21T00:32:00;10.38;;;6.95;;
59976;SDS011;45837;51.076;3.578;2024-02-21T00:34:26;11.85;;;6.97;;
59976;SDS011;45837;51.076;3.578;2024-02-21T00:36:51;11.73;;;7.35;;
59976;SDS011;45837;51.076;3.578;2024-02-21T00:39:17;13.05;;;6.85;;
59976;SDS011;45837;51.076;3.578;2024-02-21T00:41:43;11.05;;;7.00;;
59976;SDS011;45837;51.076;3.578;2024-02-21T00:44:09;12.40;;;7.13;;
59976;SDS011;45837;51.076;3.578;2024-02-21T00:46:35;8.63;;;6.00;;
59976;SDS011;45837;51.076;3.578;2024-02-21T00:49:03;12.45;;;7.10;;
59976;SDS011;45837;51.076;3.578;2024-02-21T00:51:29;9.52;;;7.05;;
59976;SDS011;45837;51.076;3.578;2024-02-21T00:53:55;9.57;;;6.15;;
59976;SDS011;45837;51.076;3.578;2024-02-21T00:56:21;11.88;;;6.57;;
59976;SDS011;45837;51.076;3.578;2024-02-21T00:58:47;13.38;;;6.68;;
59976;SDS011;45837;51.076;3.578;2024-02-21T01:01:13;9.93;;;6.28;;
59976;SDS011;45837;51.076;3.578;2024-02-21T01:03:45;10.68;;;6.70;;
59976;SDS011;45837;51.076;3.578;2024-02-21T01:06:14;9.50;;;6.03;;
59976;SDS011;45837;51.076;3.578;2024-02-21T01:08:40;12.32;;;6.45;;
59976;SDS011;45837;51.076;3.578;2024-02-21T01:11:05;10.05;;;6.40;;
59976;SDS011;45837;51.076;3.578;2024-02-21T01:13:31;7.82;;;5.72;;
59976;SDS011;45837;51.076;3.578;2024-02-21T01:15:58;9.63;;;5.90;;
59976;SDS011;45837;51.076;3.578;2024-02-21T01:18:23;10.25;;;5.82;;
59976;SDS011;45837;51.076;3.578;2024-02-21T01:20:49;10.60;;;5.85;;
59976;SDS011;45837;51.076;3.578;2024-02-21T01:23:15;7.45;;;5.30;;
59976;SDS011;45837;51.076;3.578;2024-02-21T01:25:43;9.57;;;5.85;;
59976;SDS011;45837;51.076;3.578;2024-02-21T01:28:09;9.27;;;5.57;;
59976;SDS011;45837;51.076;3.578;2024-02-21T01:30:35;8.77;;;5.80;;
59976;SDS011;45837;51.076;3.578;2024-02-21T01:33:01;8.60;;;6.00;;
59976;SDS011;45837;51.076;3.578;2024-02-21T01:35:27;8.40;;;5.30;;
59976;SDS011;45837;51.076;3.578;2024-02-21T01:37:53;10.70;;;6.15;;
59976;SDS011;45837;51.076;3.578;2024-02-21T01:40:19;8.50;;;5.47;;
59976;SDS011;45837;51.076;3.578;2024-02-21T01:42:44;8.80;;;5.63;;
59976;SDS011;45837;51.076;3.578;2024-02-21T01:45:11;8.52;;;5.18;;
59976;SDS011;45837;51.076;3.578;2024-02-21T01:47:37;9.68;;;5.45;;
59976;SDS011;45837;51.076;3.578;2024-02-21T01:50:03;7.63;;;5.15;;
59976;SDS011;45837;51.076;3.578;2024-02-21T01:52:30;8.30;;;5.68;;
59976;SDS011;45837;51.076;3.578;2024-02-21T01:54:57;8.57;;;5.57;;
59976;SDS011;45837;51.076;3.578;2024-02-21T01:57:23;8.35;;;5.68;;
59976;SDS011;45837;51.076;3.578;2024-02-21T01:59:49;8.65;;;5.80;;
59976;SDS011;45837;51.076;3.578;2024-02-21T02:02:15;6.93;;;4.93;;
59976;SDS011;45837;51.076;3.578;2024-02-21T02:04:42;7.53;;;5.43;;
59976;SDS011;45837;51.076;3.578;2024-02-21T02:07:10;8.27;;;5.53;;
59976;SDS011;45837;51.076;3.578;2024-02-21T02:09:36;7.57;;;5.63;;
59976;SDS011;45837;51.076;3.578;2024-02-21T02:12:02;8.45;;;5.65;;
59976;SDS011;45837;51.076;3.578;2024-02-21T02:14:28;9.10;;;5.35;;
59976;SDS011;45837;51.076;3.578;2024-02-21T02:16:53;7.22;;;5.28;;
59976;SDS011;45837;51.076;3.578;2024-02-21T02:19:19;8.45;;;5.35;;
59976;SDS011;45837;51.076;3.578;2024-02-21T02:21:53;8.15;;;5.38;;
59976;SDS011;45837;51.076;3.578;2024-02-21T02:24:23;7.25;;;5.00;;
59976;SDS011;45837;51.076;3.578;2024-02-21T02:26:52;10.23;;;5.00;;
59976;SDS011;45837;51.076;3.578;2024-02-21T02:29:18;7.28;;;5.10;;
59976;SDS011;45837;51.076;3.578;2024-02-21T02:31:46;8.70;;;5.30;;
59976;SDS011;45837;51.076;3.578;2024-02-21T02:34:12;7.38;;;5.22;;
59976;SDS011;45837;51.076;3.578;2024-02-21T02:36:38;7.60;;;5.05;;
59976;SDS011;45837;51.076;3.578;2024-02-21T02:39:03;7.55;;;4.43;;
59976;SDS011;45837;51.076;3.578;2024-02-21T02:41:29;8.38;;;5.63;;
59976;SDS011;45837;51.076;3.578;2024-02-21T02:43:55;6.65;;;4.80;;
59976;SDS011;45837;51.076;3.578;2024-02-21T02:46:21;9.55;;;4.57;;
59976;SDS011;45837;51.076;3.578;2024-02-21T02:48:47;8.27;;;4.97;;
59976;SDS011;45837;51.076;3.578;2024-02-21T02:51:12;7.85;;;5.15;;
59976;SDS011;45837;51.076;3.578;2024-02-21T02:53:38;8.80;;;4.35;;
59976;SDS011;45837;51.076;3.578;2024-02-21T02:56:05;6.95;;;4.78;;
59976;SDS011;45837;51.076;3.578;2024-02-21T02:58:31;7.75;;;4.53;;
59976;SDS011;45837;51.076;3.578;2024-02-21T03:00:59;8.10;;;5.18;;
59976;SDS011;45837;51.076;3.578;2024-02-21T03:03:24;8.35;;;5.15;;
59976;SDS011;45837;51.076;3.578;2024-02-21T03:05:50;6.63;;;4.47;;
59976;SDS011;45837;51.076;3.578;2024-02-21T03:08:16;7.50;;;4.30;;
59976;SDS011;45837;51.076;3.578;2024-02-21T03:10:43;8.05;;;5.10;;
59976;SDS011;45837;51.076;3.578;2024-02-21T03:13:09;7.18;;;4.70;;
59976;SDS011;45837;51.076;3.578;2024-02-21T03:15:34;7.47;;;4.30;;
59976;SDS011;45837;51.076;3.578;2024-02-21T03:18:00;8.82;;;5.05;;
59976;SDS011;45837;51.076;3.578;2024-02-21T03:20:26;6.97;;;4.38;;
59976;SDS011;45837;51.076;3.578;2024-02-21T03:22:52;6.97;;;4.43;;
59976;SDS011;45837;51.076;3.578;2024-02-21T03:25:17;6.25;;;4.63;;
59976;SDS011;45837;51.076;3.578;2024-02-21T03:27:44;8.38;;;5.00;;
59976;SDS011;45837;51.076;3.578;2024-02-21T03:30:10;6.93;;;4.65;;
59976;SDS011;45837;51.076;3.578;2024-02-21T03:32:37;8.60;;;4.47;;
59976;SDS011;45837;51.076;3.578;2024-02-21T03:35:04;6.70;;;3.90;;
59976;SDS011;45837;51.076;3.578;2024-02-21T03:37:30;8.85;;;4.30;;
59976;SDS011;45837;51.076;3.578;2024-02-21T03:39:56;7.72;;;5.32;;
59976;SDS011;45837;51.076;3.578;2024-02-21T03:42:22;7.43;;;4.75;;
59976;SDS011;45837;51.076;3.578;2024-02-21T03:44:48;7.50;;;4.63;;
59976;SDS011;45837;51.076;3.578;2024-02-21T03:47:13;6.45;;;3.90;;
59976;SDS011;45837;51.076;3.578;2024-02-21T03:49:40;6.07;;;3.92;;
59976;SDS011;45837;51.076;3.578;2024-02-21T03:52:09;6.75;;;4.35;;
59976;SDS011;45837;51.076;3.578;2024-02-21T03:54:35;7.50;;;4.88;;
59976;SDS011;45837;51.076;3.578;2024-02-21T03:57:01;7.50;;;4.60;;
59976;SDS011;45837;51.076;3.578;2024-02-21T03:59:28;6.70;;;4.05;;
59976;SDS011;45837;51.076;3.578;2024-02-21T04:01:54;5.90;;;4.05;;
59976;SDS011;45837;51.076;3.578;2024-02-21T04:04:21;5.95;;;4.05;;
59976;SDS011;45837;51.076;3.578;2024-02-21T04:06:50;6.85;;;4.40;;
59976;SDS011;45837;51.076;3.578;2024-02-21T04:09:16;6.50;;;4.13;;
59976;SDS011;45837;51.076;3.578;2024-02-21T04:11:42;7.47;;;4.13;;
59976;SDS011;45837;51.076;3.578;2024-02-21T04:14:08;6.53;;;4.15;;
59976;SDS011;45837;51.076;3.578;2024-02-21T04:16:36;6.45;;;3.75;;
59976;SDS011;45837;51.076;3.578;2024-02-21T04:19:02;6.65;;;4.15;;
59976;SDS011;45837;51.076;3.578;2024-02-21T04:21:28;6.22;;;4.13;;
59976;SDS011;45837;51.076;3.578;2024-02-21T04:23:54;7.10;;;3.88;;
59976;SDS011;45837;51.076;3.578;2024-02-21T04:26:20;7.15;;;4.43;;
59976;SDS011;45837;51.076;3.578;2024-02-21T04:28:46;7.43;;;3.90;;
59976;SDS011;45837;51.076;3.578;2024-02-21T04:31:12;7.03;;;4.05;;
59976;SDS011;45837;51.076;3.578;2024-02-21T04:33:38;6.72;;;3.75;;
59976;SDS011;45837;51.076;3.578;2024-02-21T04:36:04;6.28;;;3.83;;
59976;SDS011;45837;51.076;3.578;2024-02-21T04:38:30;7.10;;;3.90;;
59976;SDS011;45837;51.076;3.578;2024-02-21T04:40:56;7.25;;;4.68;;
59976;SDS011;45837;51.076;3.578;2024-02-21T04:43:24;7.03;;;4.13;;
59976;SDS011;45837;51.076;3.578;2024-02-21T04:45:50;6.20;;;3.65;;
59976;SDS011;45837;51.076;3.578;2024-02-21T04:48:18;6.72;;;4.07;;
59976;SDS011;45837;51.076;3.578;2024-02-21T04:50:44;7.63;;;3.72;;
59976;SDS011;45837;51.076;3.578;2024-02-21T04:53:10;8.10;;;4.45;;
59976;SDS011;45837;51.076;3.578;2024-02-21T04:55:36;6.80;;;3.67;;
59976;SDS011;45837;51.076;3.578;2024-02-21T04:58:02;6.13;;;4.05;;
59976;SDS011;45837;51.076;3.578;2024-02-21T05:00:28;6.13;;;3.67;;
59976;SDS011;45837;51.076;3.578;2024-02-21T05:02:54;6.63;;;4.18;;
59976;SDS011;45837;51.076;3.578;2024-02-21T05:05:19;5.57;;;3.63;;
59976;SDS011;45837;51.076;3.578;2024-02-21T05:07:47;6.07;;;3.63;;
59976;SDS011;45837;51.076;3.578;2024-02-21T05:10:12;7.00;;;3.63;;
59976;SDS011;45837;51.076;3.578;2024-02-21T05:12:38;6.25;;;3.92;;
59976;SDS011;45837;51.076;3.578;2024-02-21T05:15:04;7.28;;;3.70;;
59976;SDS011;45837;51.076;3.578;2024-02-21T05:17:30;5.90;;;3.75;;
59976;SDS011;45837;51.076;3.578;2024-02-21T05:19:56;7.90;;;3.28;;
59976;SDS011;45837;51.076;3.578;2024-02-21T05:22:22;6.20;;;3.95;;
59976;SDS011;45837;51.076;3.578;2024-02-21T05:24:48;7.22;;;3.95;;
59976;SDS011;45837;51.076;3.578;2024-02-21T05:27:14;4.80;;;3.03;;
59976;SDS011;45837;51.076;3.578;2024-02-21T05:29:39;6.60;;;4.15;;
59976;SDS011;45837;51.076;3.578;2024-02-21T05:32:05;5.43;;;3.58;;
59976;SDS011;45837;51.076;3.578;2024-02-21T05:34:31;5.95;;;3.72;;
59976;SDS011;45837;51.076;3.578;2024-02-21T05:36:57;6.03;;;3.75;;
59976;SDS011;45837;51.076;3.578;2024-02-21T05:39:24;8.15;;;3.60;;
59976;SDS011;45837;51.076;3.578;2024-02-21T05:41:50;6.80;;;3.90;;
59976;SDS011;45837;51.076;3.578;2024-02-21T05:44:16;5.78;;;3.03;;
59976;SDS011;45837;51.076;3.578;2024-02-21T05:46:42;6.75;;;3.42;;
59976;SDS011;45837;51.076;3.578;2024-02-21T05:49:08;7.32;;;3.75;;
59976;SDS011;45837;51.076;3.578;2024-02-21T05:51:34;6.72;;;3.53;;
59976;SDS011;45837;51.076;3.578;2024-02-21T05:54:00;5.95;;;3.75;;
59976;SDS011;45837;51.076;3.578;2024-02-21T05:56:26;7.05;;;3.45;;
59976;SDS011;45837;51.076;3.578;2024-02-21T05:58:53;8.57;;;3.78;;
59976;SDS011;45837;51.076;3.578;2024-02-21T06:01:20;5.22;;;3.50;;
59976;SDS011;45837;51.076;3.578;2024-02-21T06:03:46;5.47;;;3.50;;
59976;SDS011;45837;51.076;3.578;2024-02-21T06:06:12;6.85;;;3.67;;
59976;SDS011;45837;51.076;3.578;2024-02-21T06:08:39;5.15;;;3.30;;
59976;SDS011;45837;51.076;3.578;2024-02-21T06:11:06;6.57;;;3.20;;
59976;SDS011;45837;51.076;3.578;2024-02-21T06:13:31;5.57;;;3.55;;
59976;SDS011;45837;51.076;3.578;2024-02-21T06:15:57;5.95;;;3.58;;
59976;SDS011;45837;51.076;3.578;2024-02-21T06:18:23;6.07;;;3.63;;
59976;SDS011;45837;51.076;3.578;2024-02-21T06:20:49;9.52;;;3.70;;
59976;SDS011;45837;51.076;3.578;2024-02-21T06:23:17;7.78;;;4.03;;
59976;SDS011;45837;51.076;3.578;2024-02-21T06:25:43;11.57;;;3.80;;
59976;SDS011;45837;51.076;3.578;2024-02-21T06:28:09;12.40;;;3.42;;
59976;SDS011;45837;51.076;3.578;2024-02-21T06:30:35;12.45;;;4.00;;
59976;SDS011;45837;51.076;3.578;2024-02-21T06:33:01;6.70;;;3.47;;
59976;SDS011;45837;51.076;3.578;2024-02-21T06:35:28;9.50;;;4.10;;
59976;SDS011;45837;51.076;3.578;2024-02-21T06:37:54;9.25;;;3.47;;
59976;SDS011;45837;51.076;3.578;2024-02-21T06:40:22;10.88;;;3.72;;
59976;SDS011;45837;51.076;3.578;2024-02-21T06:42:49;13.20;;;3.75;;
59976;SDS011;45837;51.076;3.578;2024-02-21T06:45:15;14.73;;;3.75;;
59976;SDS011;45837;51.076;3.578;2024-02-21T06:47:41;20.33;;;4.07;;
59976;SDS011;45837;51.076;3.578;2024-02-21T06:50:08;15.95;;;4.05;;
59976;SDS011;45837;51.076;3.578;2024-02-21T06:52:35;17.65;;;3.95;;
59976;SDS011;45837;51.076;3.578;2024-02-21T06:55:01;28.92;;;4.15;;
59976;SDS011;45837;51.076;3.578;2024-02-21T06:57:28;17.10;;;4.53;;
59976;SDS011;45837;51.076;3.578;2024-02-21T06:59:54;17.17;;;3.25;;
59976;SDS011;45837;51.076;3.578;2024-02-21T07:02:20;22.25;;;4.03;;
59976;SDS011;45837;51.076;3.578;2024-02-21T07:04:46;19.00;;;4.30;;
59976;SDS011;45837;51.076;3.578;2024-02-21T07:07:12;23.17;;;4.07;;
59976;SDS011;45837;51.076;3.578;2024-02-21T07:09:38;22.95;;;4.55;;
59976;SDS011;45837;51.076;3.578;2024-02-21T07:12:05;16.27;;;3.50;;
59976;SDS011;45837;51.076;3.578;2024-02-21T07:14:32;12.55;;;4.15;;
59976;SDS011;45837;51.076;3.578;2024-02-21T07:16:58;14.48;;;3.85;;
59976;SDS011;45837;51.076;3.578;2024-02-21T07:19:23;15.60;;;3.65;;
59976;SDS011;45837;51.076;3.578;2024-02-21T07:21:49;14.30;;;3.50;;
59976;SDS011;45837;51.076;3.578;2024-02-21T07:24:15;21.60;;;3.80;;
59976;SDS011;45837;51.076;3.578;2024-02-21T07:26:41;11.60;;;3.40;;
59976;SDS011;45837;51.076;3.578;2024-02-21T07:29:08;17.33;;;3.55;;
59976;SDS011;45837;51.076;3.578;2024-02-21T07:31:43;8.77;;;3.92;;
59976;SDS011;45837;51.076;3.578;2024-02-21T07:34:09;9.35;;;3.92;;
59976;SDS011;45837;51.076;3.578;2024-02-21T07:36:35;10.70;;;3.63;;
59976;SDS011;45837;51.076;3.578;2024-02-21T07:39:03;12.15;;;3.63;;
59976;SDS011;45837;51.076;3.578;2024-02-21T07:41:29;9.32;;;3.08;;
59976;SDS011;45837;51.076;3.578;2024-02-21T07:43:55;11.32;;;3.60;;
59976;SDS011;45837;51.076;3.578;2024-02-21T07:46:21;15.85;;;3.65;;
59976;SDS011;45837;51.076;3.578;2024-02-21T07:48:47;9.35;;;3.42;;
59976;SDS011;45837;51.076;3.578;2024-02-21T07:51:14;12.65;;;4.05;;
59976;SDS011;45837;51.076;3.578;2024-02-21T07:53:43;14.20;;;3.33;;
59976;SDS011;45837;51.076;3.578;2024-02-21T07:56:10;9.02;;;3.15;;
59976;SDS011;45837;51.076;3.578;2024-02-21T07:58:40;9.73;;;3.22;;
59976;SDS011;45837;51.076;3.578;2024-02-21T08:01:06;7.40;;;3.72;;
59976;SDS011;45837;51.076;3.578;2024-02-21T08:03:33;10.20;;;3.63;;
59976;SDS011;45837;51.076;3.578;2024-02-21T08:05:58;11.75;;;3.50;;
59976;SDS011;45837;51.076;3.578;2024-02-21T08:08:24;9.23;;;3.78;;
59976;SDS011;45837;51.076;3.578;2024-02-21T08:10:51;6.28;;;3.08;;
59976;SDS011;45837;51.076;3.578;2024-02-21T08:13:17;6.80;;;2.80;;
59976;SDS011;45837;51.076;3.578;2024-02-21T08:15:43;8.18;;;3.58;;
59976;SDS011;45837;51.076;3.578;2024-02-21T08:18:08;6.28;;;3.10;;
59976;SDS011;45837;51.076;3.578;2024-02-21T08:20:34;8.48;;;3.13;;
59976;SDS011;45837;51.076;3.578;2024-02-21T08:23:00;11.70;;;3.15;;
59976;SDS011;45837;51.076;3.578;2024-02-21T08:25:27;7.20;;;3.13;;
59976;SDS011;45837;51.076;3.578;2024-02-21T08:27:57;7.28;;;3.35;;
59976;SDS011;45837;51.076;3.578;2024-02-21T08:30:24;6.72;;;2.72;;
59976;SDS011;45837;51.076;3.578;2024-02-21T08:32:50;5.90;;;2.75;;
59976;SDS011;45837;51.076;3.578;2024-02-21T08:35:15;8.88;;;2.97;;
59976;SDS011;45837;51.076;3.578;2024-02-21T08:37:45;8.80;;;3.58;;
59976;SDS011;45837;51.076;3.578;2024-02-21T08:40:13;5.22;;;2.28;;
59976;SDS011;45837;51.076;3.578;2024-02-21T08:42:42;8.43;;;2.97;;
59976;SDS011;45837;51.076;3.578;2024-02-21T08:45:09;6.25;;;3.05;;
59976;SDS011;45837;51.076;3.578;2024-02-21T08:47:35;8.35;;;2.67;;
59976;SDS011;45837;51.076;3.578;2024-02-21T08:50:03;6.88;;;2.85;;
59976;SDS011;45837;51.076;3.578;2024-02-21T08:52:31;7.80;;;2.83;;
59976;SDS011;45837;51.076;3.578;2024-02-21T08:54:57;4.50;;;2.80;;
59976;SDS011;45837;51.076;3.578;2024-02-21T08:57:23;9.23;;;3.22;;
59976;SDS011;45837;51.076;3.578;2024-02-21T08:59:48;9.57;;;3.53;;
59976;SDS011;45837;51.076;3.578;2024-02-21T09:02:14;5.88;;;3.08;;
59976;SDS011;45837;51.076;3.578;2024-02-21T09:04:43;7.97;;;3.47;;
59976;SDS011;45837;51.076;3.578;2024-02-21T09:07:11;6.32;;;3.03;;
59976;SDS011;45837;51.076;3.578;2024-02-21T09:09:37;7.35;;;3.17;;
59976;SDS011;45837;51.076;3.578;2024-02-21T09:12:08;9.20;;;3.53;;
59976;SDS011;45837;51.076;3.578;2024-02-21T09:14:34;10.35;;;3.67;;
59976;SDS011;45837;51.076;3.578;2024-02-21T09:17:03;6.82;;;3.00;;
59976;SDS011;45837;51.076;3.578;2024-02-21T09:19:29;10.88;;;3.72;;
59976;SDS011;45837;51.076;3.578;2024-02-21T09:21:55;9.18;;;3.95;;
59976;SDS011;45837;51.076;3.578;2024-02-21T09:24:20;7.28;;;3.25;;
59976;SDS011;45837;51.076;3.578;2024-02-21T09:26:46;8.40;;;3.80;;
59976;SDS011;45837;51.076;3.578;2024-02-21T09:29:12;10.27;;;3.63;;
59976;SDS011;45837;51.076;3.578;2024-02-21T09:31:38;8.27;;;3.28;;
59976;SDS011;45837;51.076;3.578;2024-02-21T09:34:04;10.27;;;4.03;;
59976;SDS011;45837;51.076;3.578;2024-02-21T09:36:30;8.10;;;3.70;;
59976;SDS011;45837;51.076;3.578;2024-02-21T09:38:56;7.82;;;3.75;;
59976;SDS011;45837;51.076;3.578;2024-02-21T09:41:25;9.52;;;4.15;;
59976;SDS011;45837;51.076;3.578;2024-02-21T09:43:54;7.97;;;3.83;;
59976;SDS011;45837;51.076;3.578;2024-02-21T09:46:21;10.07;;;3.92;;
59976;SDS011;45837;51.076;3.578;2024-02-21T09:49:09;8.50;;;3.65;;
59976;SDS011;45837;51.076;3.578;2024-02-21T09:51:51;9.75;;;3.80;;
59976;SDS011;45837;51.076;3.578;2024-02-21T09:54:21;9.70;;;3.90;;
59976;SDS011;45837;51.076;3.578;2024-02-21T09:56:47;8.40;;;3.92;;
59976;SDS011;45837;51.076;3.578;2024-02-21T09:59:16;7.78;;;3.92;;
59976;SDS011;45837;51.076;3.578;2024-02-21T10:01:45;8.40;;;3.80;;
59976;SDS011;45837;51.076;3.578;2024-02-21T10:04:15;11.18;;;3.58;;
59976;SDS011;45837;51.076;3.578;2024-02-21T10:06:41;12.52;;;3.88;;
59976;SDS011;45837;51.076;3.578;2024-02-21T10:09:07;12.48;;;3.55;;
59976;SDS011;45837;51.076;3.578;2024-02-21T10:11:32;8.93;;;3.30;;
59976;SDS011;45837;51.076;3.578;2024-02-21T10:14:07;10.10;;;3.28;;
59976;SDS011;45837;51.076;3.578;2024-02-21T10:16:33;7.78;;;3.10;;
59976;SDS011;45837;51.076;3.578;2024-02-21T10:18:59;9.23;;;3.15;;
59976;SDS011;45837;51.076;3.578;2024-02-21T10:21:25;8.85;;;3.08;;
59976;SDS011;45837;51.076;3.578;2024-02-21T10:23:51;8.93;;;3.25;;
59976;SDS011;45837;51.076;3.578;2024-02-21T10:26:18;7.43;;;3.22;;
59976;SDS011;45837;51.076;3.578;2024-02-21T10:28:46;8.50;;;3.05;;
59976;SDS011;45837;51.076;3.578;2024-02-21T10:31:31;6.78;;;3.05;;
59976;SDS011;45837;51.076;3.578;2024-02-21T10:34:01;8.15;;;3.00;;
59976;SDS011;45837;51.076;3.578;2024-02-21T10:36:29;5.28;;;2.40;;
59976;SDS011;45837;51.076;3.578;2024-02-21T10:38:55;7.55;;;2.53;;
59976;SDS011;45837;51.076;3.578;2024-02-21T10:41:21;8.52;;;2.72;;
59976;SDS011;45837;51.076;3.578;2024-02-21T10:43:52;6.20;;;2.67;;
59976;SDS011;45837;51.076;3.578;2024-02-21T10:46:22;11.02;;;2.50;;
59976;SDS011;45837;51.076;3.578;2024-02-21T10:48:55;9.80;;;2.70;;
59976;SDS011;45837;51.076;3.578;2024-02-21T10:51:30;7.10;;;2.42;;
59976;SDS011;45837;51.076;3.578;2024-02-21T10:56:49;7.40;;;2.53;;
59976;SDS011;45837;51.076;3.578;2024-02-21T10:59:16;7.57;;;2.28;;
59976;SDS011;45837;51.076;3.578;2024-02-21T11:01:43;5.05;;;2.10;;
59976;SDS011;45837;51.076;3.578;2024-02-21T11:04:10;5.60;;;2.17;;
59976;SDS011;45837;51.076;3.578;2024-02-21T11:06:37;9.25;;;2.75;;
59976;SDS011;45837;51.076;3.578;2024-02-21T11:09:06;6.60;;;2.72;;
59976;SDS011;45837;51.076;3.578;2024-02-21T11:11:43;4.80;;;2.15;;
59976;SDS011;45837;51.076;3.578;2024-02-21T11:14:10;5.30;;;2.05;;
59976;SDS011;45837;51.076;3.578;2024-02-21T11:16:37;8.40;;;2.47;;
59976;SDS011;45837;51.076;3.578;2024-02-21T11:21:35;9.18;;;2.45;;
59976;SDS011;45837;51.076;3.578;2024-02-21T11:24:04;6.05;;;2.47;;
59976;SDS011;45837;51.076;3.578;2024-02-21T11:26:32;4.38;;;2.17;;
59976;SDS011;45837;51.076;3.578;2024-02-21T11:29:01;8.50;;;2.58;;
59976;SDS011;45837;51.076;3.578;2024-02-21T11:31:40;7.72;;;2.38;;
59976;SDS011;45837;51.076;3.578;2024-02-21T11:34:11;5.43;;;1.95;;
59976;SDS011;45837;51.076;3.578;2024-02-21T11:36:50;4.72;;;2.30;;
59976;SDS011;45837;51.076;3.578;2024-02-21T11:42:06;6.00;;;2.65;;
59976;SDS011;45837;51.076;3.578;2024-02-21T11:44:33;8.07;;;2.13;;
59976;SDS011;45837;51.076;3.578;2024-02-21T11:47:00;10.90;;;2.80;;
59976;SDS011;45837;51.076;3.578;2024-02-21T11:49:28;6.45;;;2.50;;
59976;SDS011;45837;51.076;3.578;2024-02-21T11:52:01;7.68;;;2.20;;
59976;SDS011;45837;51.076;3.578;2024-02-21T11:56:59;15.82;;;2.22;;
59976;SDS011;45837;51.076;3.578;2024-02-21T11:59:25;11.05;;;2.53;;
59976;SDS011;45837;51.076;3.578;2024-02-21T12:01:52;8.55;;;2.38;;
59976;SDS011;45837;51.076;3.578;2024-02-21T12:04:21;16.25;;;2.83;;
59976;SDS011;45837;51.076;3.578;2024-02-21T12:06:49;12.68;;;2.70;;
59976;SDS011;45837;51.076;3.578;2024-02-21T12:09:18;16.58;;;2.95;;
59976;SDS011;45837;51.076;3.578;2024-02-21T12:11:44;16.80;;;3.10;;
59976;SDS011;45837;51.076;3.578;2024-02-21T12:14:15;22.25;;;3.65;;
59976;SDS011;45837;51.076;3.578;2024-02-21T12:16:42;15.23;;;2.90;;
59976;SDS011;45837;51.076;3.578;2024-02-21T12:19:12;6.57;;;1.83;;
59976;SDS011;45837;51.076;3.578;2024-02-21T12:21:38;21.75;;;2.75;;
59976;SDS011;45837;51.076;3.578;2024-02-21T12:26:58;17.50;;;3.75;;
59976;SDS011;45837;51.076;3.578;2024-02-21T12:29:25;13.57;;;2.92;;
59976;SDS011;45837;51.076;3.578;2024-02-21T12:31:51;15.60;;;3.25;;
59976;SDS011;45837;51.076;3.578;2024-02-21T12:34:17;23.63;;;3.85;;
59976;SDS011;45837;51.076;3.578;2024-02-21T12:36:43;20.77;;;3.22;;
59976;SDS011;45837;51.076;3.578;2024-02-21T12:39:10;14.65;;;3.30;;
59976;SDS011;45837;51.076;3.578;2024-02-21T12:41:36;18.25;;;2.80;;
59976;SDS011;45837;51.076;3.578;2024-02-21T12:44:09;21.83;;;3.67;;
59976;SDS011;45837;51.076;3.578;2024-02-21T12:46:36;15.52;;;3.10;;
59976;SDS011;45837;51.076;3.578;2024-02-21T12:49:03;19.20;;;3.47;;
59976;SDS011;45837;51.076;3.578;2024-02-21T12:51:29;15.95;;;3.35;;
59976;SDS011;45837;51.076;3.578;2024-02-21T12:53:56;22.13;;;3.30;;
59976;SDS011;45837;51.076;3.578;2024-02-21T12:56:22;15.13;;;3.08;;
59976;SDS011;45837;51.076;3.578;2024-02-21T12:58:48;13.15;;;3.03;;
59976;SDS011;45837;51.076;3.578;2024-02-21T13:01:14;15.27;;;3.47;;
59976;SDS011;45837;51.076;3.578;2024-02-21T13:03:39;20.38;;;3.75;;
59976;SDS011;45837;51.076;3.578;2024-02-21T13:06:05;18.70;;;4.13;;
59976;SDS011;45837;51.076;3.578;2024-02-21T13:08:37;16.90;;;3.88;;
59976;SDS011;45837;51.076;3.578;2024-02-21T13:11:03;15.52;;;3.60;;
59976;SDS011;45837;51.076;3.578;2024-02-21T13:13:30;18.73;;;3.95;;
59976;SDS011;45837;51.076;3.578;2024-02-21T13:15:57;14.95;;;2.78;;
59976;SDS011;45837;51.076;3.578;2024-02-21T13:18:23;15.20;;;3.67;;
59976;SDS011;45837;51.076;3.578;2024-02-21T13:20:49;23.02;;;3.20;;
59976;SDS011;45837;51.076;3.578;2024-02-21T13:23:15;10.95;;;3.28;;
59976;SDS011;45837;51.076;3.578;2024-02-21T13:25:41;11.70;;;3.35;;
59976;SDS011;45837;51.076;3.578;2024-02-21T13:28:06;12.32;;;3.35;;
59976;SDS011;45837;51.076;3.578;2024-02-21T13:30:33;16.42;;;3.53;;
59976;SDS011;45837;51.076;3.578;2024-02-21T13:32:59;10.73;;;2.55;;
59976;SDS011;45837;51.076;3.578;2024-02-21T13:35:25;16.08;;;3.47;;
59976;SDS011;45837;51.076;3.578;2024-02-21T13:37:53;13.43;;;3.33;;
59976;SDS011;45837;51.076;3.578;2024-02-21T13:40:19;16.45;;;2.92;;
59976;SDS011;45837;51.076;3.578;2024-02-21T13:42:44;10.30;;;2.95;;
59976;SDS011;45837;51.076;3.578;2024-02-21T13:45:10;14.50;;;2.88;;
59976;SDS011;45837;51.076;3.578;2024-02-21T13:47:36;10.60;;;2.63;;
59976;SDS011;45837;51.076;3.578;2024-02-21T13:50:03;8.52;;;3.10;;
59976;SDS011;45837;51.076;3.578;2024-02-21T13:52:30;9.45;;;3.20;;
59976;SDS011;45837;51.076;3.578;2024-02-21T13:54:56;8.68;;;2.60;;
59976;SDS011;45837;51.076;3.578;2024-02-21T13:57:22;7.97;;;2.47;;
59976;SDS011;45837;51.076;3.578;2024-02-21T13:59:48;11.27;;;2.55;;
59976;SDS011;45837;51.076;3.578;2024-02-21T14:02:14;9.10;;;2.45;;
59976;SDS011;45837;51.076;3.578;2024-02-21T14:04:40;7.57;;;2.35;;
59976;SDS011;45837;51.076;3.578;2024-02-21T14:07:05;9.38;;;3.10;;
59976;SDS011;45837;51.076;3.578;2024-02-21T14:09:31;9.45;;;3.53;;
59976;SDS011;45837;51.076;3.578;2024-02-21T14:11:58;8.85;;;2.97;;
59976;SDS011;45837;51.076;3.578;2024-02-21T14:14:24;9.00;;;2.60;;
59976;SDS011;45837;51.076;3.578;2024-02-21T14:16:49;8.45;;;2.30;;
59976;SDS011;45837;51.076;3.578;2024-02-21T14:19:16;7.53;;;2.45;;
59976;SDS011;45837;51.076;3.578;2024-02-21T14:21:43;7.65;;;2.58;;
59976;SDS011;45837;51.076;3.578;2024-02-21T14:24:09;7.35;;;2.47;;
59976;SDS011;45837;51.076;3.578;2024-02-21T14:26:37;7.60;;;2.58;;
59976;SDS011;45837;51.076;3.578;2024-02-21T14:29:04;5.90;;;2.58;;
59976;SDS011;45837;51.076;3.578;2024-02-21T14:31:33;6.18;;;2.40;;
59976;SDS011;45837;51.076;3.578;2024-02-21T14:33:59;5.80;;;2.80;;
59976;SDS011;45837;51.076;3.578;2024-02-21T14:36:26;7.85;;;2.47;;
59976;SDS011;45837;51.076;3.578;2024-02-21T14:38:52;7.90;;;2.67;;
59976;SDS011;45837;51.076;3.578;2024-02-21T14:41:17;4.03;;;1.92;;
59976;SDS011;45837;51.076;3.578;2024-02-21T14:43:44;7.15;;;2.25;;
59976;SDS011;45837;51.076;3.578;2024-02-21T14:46:10;6.47;;;2.83;;
59976;SDS011;45837;51.076;3.578;2024-02-21T14:48:37;6.65;;;2.90;;
59976;SDS011;45837;51.076;3.578;2024-02-21T14:51:03;5.10;;;1.98;;
59976;SDS011;45837;51.076;3.578;2024-02-21T14:53:29;7.20;;;2.45;;